createdAt,value
2019-01-24T00:00:56.540Z,21.30
2019-01-24T00:01:56.545Z,20.40
2019-01-24T00:02:56.554Z,20.80
2019-01-24T00:03:56.562Z,21.70
2019-01-24T00:04:56.569Z,22.60
2019-01-24T00:05:56.574Z,20.50
2019-01-24T00:06:56.583Z,20.10
2019-01-24T00:07:56.591Z,21.40
2019-01-24T00:08:56.598Z,20.30
2019-01-24T00:09:56.607Z,21.60
2019-01-24T00:10:56.615Z,20.90
2019-01-24T00:11:56.623Z,21.80
2019-01-24T00:12:56.630Z,21.40
2019-01-24T00:13:56.637Z,20.60
2019-01-24T00:14:56.643Z,21.10
2019-01-24T00:15:56.652Z,20.70
2019-01-24T00:16:56.659Z,20.70
2019-01-24T00:17:56.667Z,20.70
2019-01-24T00:18:56.673Z,20.30
2019-01-24T00:19:56.681Z,21.50
2019-01-24T00:20:56.690Z,20.40
2019-01-24T00:21:56.694Z,19.00
2019-01-24T00:22:56.702Z,20.20
2019-01-24T00:23:56.710Z,20.40
2019-01-24T00:24:56.727Z,20.60
2019-01-24T00:25:56.723Z,20.80
2019-01-24T00:26:56.731Z,20.00
2019-01-24T00:27:56.741Z,20.30
2019-01-24T00:28:56.746Z,20.90
2019-01-24T00:29:56.754Z,21.00
2019-01-24T00:30:56.767Z,19.70
2019-01-24T00:31:56.769Z,20.30
2019-01-24T00:32:56.778Z,19.80
2019-01-24T00:33:56.783Z,21.10
2019-01-24T00:34:56.790Z,20.60
2019-01-24T00:35:56.799Z,20.10
2019-01-24T00:36:56.805Z,20.10
2019-01-24T00:37:56.812Z,20.70
2019-01-24T00:38:56.821Z,20.20
2019-01-24T00:39:56.832Z,21.90
2019-01-24T00:40:56.839Z,19.90
2019-01-24T00:41:56.844Z,19.90
2019-01-24T00:42:56.851Z,20.80
2019-01-24T00:43:56.860Z,21.20
2019-01-24T00:44:56.866Z,20.60
2019-01-24T00:45:56.876Z,19.90
2019-01-24T00:46:56.889Z,20.90
2019-01-24T00:47:56.893Z,20.80
2019-01-24T00:48:56.897Z,21.50
2019-01-24T00:49:56.907Z,20.70
2019-01-24T00:50:56.910Z,21.00
2019-01-24T00:51:56.923Z,20.40
2019-01-24T00:52:56.928Z,20.60
2019-01-24T00:53:56.935Z,19.70
2019-01-24T00:54:56.940Z,21.90
2019-01-24T00:55:56.948Z,19.90
2019-01-24T00:56:56.956Z,21.50
2019-01-24T00:57:56.964Z,20.90
2019-01-24T00:58:56.970Z,21.10
2019-01-24T00:59:56.981Z,21.50
2019-01-24T01:00:56.994Z,20.90
2019-01-24T01:01:56.996Z,21.00
2019-01-24T01:02:57.006Z,20.20
2019-01-24T01:03:57.009Z,22.10
2019-01-24T01:04:57.018Z,21.00
2019-01-24T01:05:57.026Z,21.30
2019-01-24T01:06:57.034Z,21.90
2019-01-24T01:07:57.041Z,20.70
2019-01-24T01:08:57.048Z,20.40
2019-01-24T01:09:57.057Z,21.00
2019-01-24T01:10:57.062Z,20.50
2019-01-24T01:11:57.070Z,20.50
2019-01-24T01:12:57.080Z,21.60
2019-01-24T01:13:57.086Z,21.30
2019-01-24T01:14:57.095Z,20.10
2019-01-24T01:15:57.103Z,20.60
2019-01-24T01:16:57.113Z,19.70
2019-01-24T01:17:57.114Z,20.90
2019-01-24T01:18:57.125Z,20.10
2019-01-24T01:19:57.131Z,18.50
2019-01-24T01:20:57.138Z,19.90
2019-01-24T01:21:57.145Z,20.00
2019-01-24T01:22:57.154Z,20.80
2019-01-24T01:23:57.161Z,20.10
2019-01-24T01:24:57.169Z,20.20
2019-01-24T01:25:57.175Z,19.50
2019-01-24T01:26:57.184Z,20.90
2019-01-24T01:27:57.192Z,20.60
2019-01-24T01:28:57.198Z,21.50
2019-01-24T01:29:57.207Z,20.50
2019-01-24T01:30:57.216Z,20.50
2019-01-24T01:31:57.227Z,20.60
2019-01-24T01:32:57.230Z,20.40
2019-01-24T01:33:57.234Z,21.00
2019-01-24T01:34:57.245Z,21.90
2019-01-24T01:35:57.251Z,20.50
2019-01-24T01:36:57.259Z,19.40
2019-01-24T01:37:57.267Z,20.60
2019-01-24T01:38:57.273Z,20.20
2019-01-24T01:39:57.283Z,19.80
2019-01-24T01:40:57.290Z,20.10
2019-01-24T01:41:57.297Z,20.70
2019-01-24T01:42:57.306Z,19.60
2019-01-24T01:43:57.314Z,21.30
2019-01-24T01:44:57.321Z,20.10
2019-01-24T01:45:57.330Z,20.30
2019-01-24T01:46:57.355Z,19.80
2019-01-24T01:47:57.418Z,20.50
2019-01-24T01:48:57.418Z,20.20
2019-01-24T01:49:57.416Z,20.00
2019-01-24T01:50:57.420Z,21.00
2019-01-24T01:51:57.411Z,21.00
2019-01-24T01:52:57.421Z,19.90
2019-01-24T01:53:57.412Z,21.10
2019-01-24T01:54:57.422Z,19.60
2019-01-24T01:55:57.450Z,20.30
2019-01-24T01:56:57.475Z,20.00
2019-01-24T01:57:57.481Z,21.30
2019-01-24T01:58:57.470Z,21.30
2019-01-24T01:59:57.478Z,21.10
2019-01-24T02:00:57.468Z,20.70
2019-01-24T02:01:57.470Z,20.80
2019-01-24T02:02:57.464Z,20.60
2019-01-24T02:03:57.471Z,20.70
2019-01-24T02:04:57.472Z,20.30
2019-01-24T02:05:57.478Z,21.50
2019-01-24T02:06:57.487Z,20.20
2019-01-24T02:07:57.500Z,21.60
2019-01-24T02:08:57.503Z,21.30
2019-01-24T02:09:57.511Z,19.70
2019-01-24T02:10:57.520Z,21.10
2019-01-24T02:11:57.527Z,20.10
2019-01-24T02:12:57.535Z,20.60
2019-01-24T02:13:57.542Z,20.90
2019-01-24T02:14:57.550Z,20.10
2019-01-24T02:15:57.558Z,20.30
2019-01-24T02:16:57.565Z,22.00
2019-01-24T02:17:57.575Z,19.80
2019-01-24T02:18:57.583Z,21.10
2019-01-24T02:19:57.591Z,20.00
2019-01-24T02:20:57.596Z,21.00
2019-01-24T02:21:57.604Z,19.90
2019-01-24T02:22:57.612Z,19.40
2019-01-24T02:23:57.622Z,20.60
2019-01-24T02:24:57.630Z,19.60
2019-01-24T02:25:57.636Z,21.00
2019-01-24T02:26:57.644Z,19.70
2019-01-24T02:27:57.650Z,19.90
2019-01-24T02:28:57.659Z,19.10
2019-01-24T02:29:57.666Z,19.90
2019-01-24T02:30:57.675Z,19.30
2019-01-24T02:31:57.685Z,19.10
2019-01-24T02:32:57.690Z,19.60
2019-01-24T02:33:57.698Z,19.10
2019-01-24T02:34:57.705Z,19.70
2019-01-24T02:35:57.714Z,18.60
2019-01-24T02:36:57.721Z,19.70
2019-01-24T02:37:57.729Z,19.80
2019-01-24T02:38:57.736Z,18.20
2019-01-24T02:39:57.745Z,19.90
2019-01-24T02:40:57.751Z,19.30
2019-01-24T02:41:57.759Z,19.50
2019-01-24T02:42:57.766Z,20.00
2019-01-24T02:43:57.773Z,19.90
2019-01-24T02:44:57.783Z,20.30
2019-01-24T02:45:57.790Z,20.10
2019-01-24T02:46:57.797Z,20.50
2019-01-24T02:47:57.806Z,21.20
2019-01-24T02:48:57.816Z,21.60
2019-01-24T02:49:57.821Z,19.30
2019-01-24T02:50:57.832Z,20.00
2019-01-24T02:51:57.836Z,21.50
2019-01-24T02:52:57.844Z,22.10
2019-01-24T02:53:57.853Z,21.20
2019-01-24T02:54:57.860Z,21.00
2019-01-24T02:55:57.873Z,20.20
2019-01-24T02:56:57.876Z,21.50
2019-01-24T02:57:57.883Z,20.60
2019-01-24T02:58:57.902Z,20.90
2019-01-24T02:59:57.904Z,21.50
2019-01-24T03:00:57.909Z,20.90
2019-01-24T03:01:57.914Z,19.70
2019-01-24T03:02:57.920Z,20.30
2019-01-24T03:03:57.930Z,20.50
2019-01-24T03:04:57.935Z,20.30
2019-01-24T03:05:57.946Z,20.90
2019-01-24T03:06:57.952Z,19.40
2019-01-24T03:07:57.960Z,19.60
2019-01-24T03:08:57.972Z,19.90
2019-01-24T03:09:57.979Z,20.00
2019-01-24T03:10:57.984Z,20.50
2019-01-24T03:11:57.991Z,19.20
2019-01-24T03:12:57.999Z,19.60
2019-01-24T03:13:58.006Z,18.80
2019-01-24T03:14:58.017Z,19.50
2019-01-24T03:15:58.024Z,21.30
2019-01-24T03:16:58.034Z,19.10
2019-01-24T03:17:58.037Z,19.50
2019-01-24T03:18:58.043Z,21.50
2019-01-24T03:19:58.058Z,19.90
2019-01-24T03:20:58.061Z,19.70
2019-01-24T03:21:58.069Z,20.90
2019-01-24T03:22:58.079Z,20.60
2019-01-24T03:23:58.084Z,21.30
2019-01-24T03:24:58.093Z,19.50
2019-01-24T03:25:58.117Z,19.80
2019-01-24T03:26:58.108Z,19.50
2019-01-24T03:27:58.115Z,20.30
2019-01-24T03:28:58.124Z,20.00
2019-01-24T03:29:58.130Z,20.00
2019-01-24T03:30:58.137Z,20.30
2019-01-24T03:31:58.151Z,19.90
2019-01-24T03:32:58.156Z,19.50
2019-01-24T03:33:58.160Z,19.90
2019-01-24T03:35:03.927Z,21.10
2019-01-24T03:35:58.177Z,20.50
2019-01-24T03:36:58.184Z,20.90
2019-01-24T03:37:58.192Z,20.80
2019-01-24T03:38:58.243Z,21.10
2019-01-24T03:39:58.211Z,20.80
2019-01-24T03:40:58.218Z,20.50
2019-01-24T03:41:58.224Z,19.30
2019-01-24T03:42:58.230Z,19.40
2019-01-24T03:43:58.238Z,20.70
2019-01-24T03:44:58.248Z,21.70
2019-01-24T03:45:58.254Z,20.30
2019-01-24T03:46:58.261Z,19.40
2019-01-24T03:47:58.268Z,21.80
2019-01-24T03:48:58.280Z,19.50
2019-01-24T03:49:58.286Z,20.30
2019-01-24T03:50:58.296Z,20.40
2019-01-24T03:51:58.313Z,21.40
2019-01-24T03:52:58.309Z,19.10
2019-01-24T03:53:58.317Z,20.10
2019-01-24T03:54:58.326Z,20.80
2019-01-24T03:55:58.332Z,20.70
2019-01-24T03:56:58.340Z,19.90
2019-01-24T03:57:58.345Z,21.80
2019-01-24T03:58:58.356Z,20.40
2019-01-24T03:59:58.362Z,21.00
2019-01-24T04:00:58.370Z,21.10
2019-01-24T04:01:58.378Z,20.40
2019-01-24T04:02:58.391Z,19.50
2019-01-24T04:03:58.401Z,21.80
2019-01-24T04:04:58.407Z,21.10
2019-01-24T04:05:58.408Z,20.80
2019-01-24T04:06:58.416Z,18.90
2019-01-24T04:07:58.429Z,19.90
2019-01-24T04:08:58.433Z,20.20
2019-01-24T04:09:58.441Z,19.90
2019-01-24T04:10:58.449Z,20.90
2019-01-24T04:11:58.458Z,19.30
2019-01-24T04:12:58.463Z,20.30
2019-01-24T04:13:58.469Z,21.00
2019-01-24T04:14:58.477Z,20.50
2019-01-24T04:15:58.487Z,20.70
2019-01-24T04:16:58.494Z,20.10
2019-01-24T04:17:58.501Z,20.00
2019-01-24T04:18:58.512Z,21.80
2019-01-24T04:19:58.518Z,20.10
2019-01-24T04:20:58.526Z,21.30
2019-01-24T04:21:58.531Z,20.40
2019-01-24T04:22:58.540Z,21.30
2019-01-24T04:23:58.551Z,21.10
2019-01-24T04:24:58.556Z,19.50
2019-01-24T04:25:58.569Z,21.70
2019-01-24T04:26:58.575Z,21.10
2019-01-24T04:27:58.580Z,20.40
2019-01-24T04:28:58.589Z,21.20
2019-01-24T04:29:58.594Z,20.00
2019-01-24T04:30:58.603Z,19.00
2019-01-24T04:31:58.613Z,20.50
2019-01-24T04:32:58.621Z,20.80
2019-01-24T04:33:58.627Z,21.00
2019-01-24T04:34:58.634Z,22.20
2019-01-24T04:35:58.642Z,20.40
2019-01-24T04:36:58.650Z,20.00
2019-01-24T04:37:58.659Z,21.30
2019-01-24T04:38:58.664Z,19.90
2019-01-24T04:39:58.672Z,20.60
2019-01-24T04:40:58.681Z,20.50
2019-01-24T04:41:58.688Z,21.20
2019-01-24T04:50:58.676Z,21.40
2019-01-24T04:52:25.474Z,21.40
2019-01-24T04:54:25.490Z,22.10
2019-01-24T04:56:25.504Z,23.20
2019-01-24T05:03:52.261Z,21.60
2019-01-24T05:04:52.268Z,23.10
2019-01-24T05:05:52.276Z,22.40
2019-01-24T05:07:52.292Z,22.20
2019-01-24T05:13:08.903Z,21.80
2019-01-24T05:13:35.687Z,22.60
2019-01-24T05:15:35.708Z,22.00
2019-01-24T05:16:35.709Z,22.90
2019-01-24T05:25:19.158Z,21.80
2019-01-24T05:26:45.931Z,23.00
2019-01-24T05:27:45.940Z,22.30
2019-01-24T05:28:45.946Z,22.40
2019-01-24T05:42:39.414Z,22.20
2019-01-24T05:43:06.204Z,22.50
2019-01-24T05:44:06.212Z,23.00
2019-01-24T05:45:06.218Z,22.00
2019-01-24T05:53:37.961Z,23.30
2019-01-24T05:53:59.695Z,22.50
2019-01-24T05:54:59.702Z,22.50
2019-01-24T05:55:59.710Z,22.30
2019-01-24T05:56:59.717Z,22.50
2019-01-24T05:57:59.725Z,21.30
2019-01-24T05:58:59.735Z,22.10
2019-01-24T05:59:59.740Z,20.70
2019-01-24T06:00:59.747Z,21.90
2019-01-24T06:01:59.755Z,22.00
2019-01-24T06:02:59.763Z,21.00
2019-01-24T06:03:59.771Z,21.70
2019-01-24T06:04:59.779Z,22.30
2019-01-24T06:05:59.785Z,22.30
2019-01-24T06:06:59.798Z,21.20
2019-01-24T06:07:59.802Z,21.90
2019-01-24T06:08:59.829Z,20.90
2019-01-24T06:09:59.817Z,21.90
2019-01-24T06:18:19.030Z,21.60
2019-01-24T06:18:53.364Z,21.70
2019-01-24T06:19:53.370Z,21.40
2019-01-24T06:20:53.382Z,22.10
2019-01-24T06:21:53.388Z,21.60
2019-01-24T06:22:53.397Z,20.70
2019-01-24T06:23:53.400Z,21.50
2019-01-24T06:28:53.359Z,20.80
2019-01-24T06:29:20.150Z,20.40
2019-01-24T06:30:20.151Z,19.90
2019-01-24T06:31:20.162Z,21.20
2019-01-24T06:32:20.171Z,21.20
2019-01-24T06:33:20.177Z,21.70
2019-01-24T06:34:20.185Z,20.50
2019-01-24T06:35:20.192Z,21.30
2019-01-24T06:36:20.198Z,21.20
2019-01-24T06:37:20.205Z,21.40
2019-01-24T06:38:20.212Z,20.40
2019-01-24T06:39:20.222Z,21.10
2019-01-24T06:40:20.230Z,21.50
2019-01-24T06:41:20.235Z,20.60
2019-01-24T06:42:20.245Z,21.10
2019-01-24T06:43:20.252Z,19.20
2019-01-24T06:44:20.260Z,19.00
2019-01-24T06:45:20.267Z,20.60
2019-01-24T06:46:20.275Z,19.80
2019-01-24T06:47:20.284Z,19.00
2019-01-24T06:48:20.291Z,20.10
2019-01-24T06:49:20.298Z,20.40
2019-01-24T06:50:20.306Z,20.00
2019-01-24T06:51:20.313Z,20.30
2019-01-24T06:52:20.323Z,20.00
2019-01-24T06:53:20.330Z,20.50
2019-01-24T06:54:20.338Z,19.60
2019-01-24T06:55:20.346Z,19.60
2019-01-24T06:56:20.352Z,19.80
2019-01-24T06:57:20.361Z,20.30
2019-01-24T06:58:20.369Z,19.90
2019-01-24T06:59:20.377Z,20.80
2019-01-24T07:00:20.384Z,21.50
2019-01-24T07:01:20.391Z,21.10
2019-01-24T07:02:20.399Z,21.20
2019-01-24T07:03:20.408Z,21.40
2019-01-24T07:04:20.420Z,20.90
2019-01-24T07:05:20.462Z,21.90
2019-01-24T07:06:20.431Z,22.50
2019-01-24T07:07:20.439Z,20.70
2019-01-24T07:08:20.447Z,19.60
2019-01-24T07:09:20.454Z,20.40
2019-01-24T07:10:20.461Z,21.10
2019-01-24T07:11:20.470Z,20.50
2019-01-24T07:12:20.480Z,20.60
2019-01-24T07:13:20.485Z,21.30
2019-01-24T07:14:20.494Z,21.00
2019-01-24T07:15:20.500Z,20.90
2019-01-24T07:16:20.508Z,21.70
2019-01-24T07:17:20.515Z,21.30
2019-01-24T07:18:20.523Z,19.70
2019-01-24T07:19:20.530Z,20.50
2019-01-24T07:20:20.540Z,20.20
2019-01-24T07:21:20.551Z,20.70
2019-01-24T07:22:20.557Z,19.20
2019-01-24T07:23:20.561Z,20.00
2019-01-24T07:24:21.478Z,19.30
2019-01-24T07:25:20.576Z,20.50
2019-01-24T07:26:20.584Z,18.80
2019-01-24T07:27:20.594Z,20.40
2019-01-24T07:28:20.603Z,20.00
2019-01-24T07:29:20.607Z,19.30
2019-01-24T07:30:20.616Z,19.20
2019-01-24T07:31:20.624Z,19.10
2019-01-24T07:32:20.631Z,19.50
2019-01-24T07:33:20.642Z,19.20
2019-01-24T07:34:20.646Z,18.40
2019-01-24T07:35:20.654Z,18.60
2019-01-24T07:36:20.667Z,19.10
2019-01-24T07:37:20.670Z,19.30
2019-01-24T07:38:20.676Z,19.40
2019-01-24T07:39:20.685Z,18.90
2019-01-24T07:40:20.693Z,19.30
2019-01-24T07:41:20.699Z,18.30
2019-01-24T07:42:20.709Z,18.20
2019-01-24T07:43:20.717Z,19.30
2019-01-24T07:44:20.725Z,17.60
2019-01-24T07:45:20.731Z,19.20
2019-01-24T07:46:20.740Z,18.30
2019-01-24T07:47:20.747Z,19.10
2019-01-24T07:48:20.755Z,18.00
2019-01-24T07:49:20.760Z,18.10
2019-01-24T07:50:20.770Z,17.80
2019-01-24T07:51:20.777Z,17.40
2019-01-24T07:52:20.785Z,16.00
2019-01-24T07:53:20.791Z,18.20
2019-01-24T07:54:20.801Z,16.70
2019-01-24T07:55:20.806Z,16.70
2019-01-24T07:56:20.815Z,17.60
2019-01-24T07:57:20.823Z,16.20
2019-01-24T07:58:20.829Z,16.80
2019-01-24T07:59:20.841Z,15.10
2019-01-24T08:00:20.845Z,16.40
2019-01-24T08:01:20.853Z,15.70
2019-01-24T08:02:20.862Z,15.60
2019-01-24T08:03:20.888Z,17.90
2019-01-24T08:04:20.890Z,17.50
2019-01-24T08:05:20.908Z,16.70
2019-01-24T08:06:20.963Z,17.40
2019-01-24T08:07:20.971Z,18.10
2019-01-24T08:08:20.969Z,16.10
2019-01-24T08:09:20.956Z,16.90
2019-01-24T08:10:20.952Z,15.90
2019-01-24T08:11:20.956Z,16.80
2019-01-24T08:12:21.006Z,16.70
2019-01-24T08:13:21.022Z,17.10
2019-01-24T08:14:21.014Z,17.50
2019-01-24T08:15:21.022Z,17.50
2019-01-24T08:16:21.020Z,17.30
2019-01-24T08:17:21.014Z,16.80
2019-01-24T08:18:21.005Z,16.90
2019-01-24T08:19:21.016Z,16.50
2019-01-24T08:20:21.022Z,17.70
2019-01-24T08:21:21.017Z,16.80
2019-01-24T08:22:21.021Z,16.60
2019-01-24T08:23:21.024Z,17.50
2019-01-24T08:24:21.036Z,17.40
2019-01-24T08:25:21.040Z,16.80
2019-01-24T08:26:21.048Z,16.60
2019-01-24T08:27:21.054Z,17.10
2019-01-24T08:28:21.063Z,16.90
2019-01-24T08:29:21.069Z,16.60
2019-01-24T08:30:21.078Z,16.40
2019-01-24T08:31:21.084Z,16.80
2019-01-24T08:32:21.096Z,17.10
2019-01-24T08:33:21.103Z,16.60
2019-01-24T08:34:21.110Z,17.30
2019-01-24T08:35:21.118Z,16.10
2019-01-24T08:36:21.126Z,17.50
2019-01-24T08:37:21.134Z,17.00
2019-01-24T08:38:21.143Z,15.50
2019-01-24T08:39:21.149Z,17.20
2019-01-24T08:40:21.160Z,17.10
2019-01-24T08:41:21.164Z,17.30
2019-01-24T08:42:21.178Z,16.50
2019-01-24T08:43:21.181Z,16.90
2019-01-24T08:44:21.190Z,17.40
2019-01-24T08:45:21.196Z,16.70
2019-01-24T08:46:21.206Z,16.40
2019-01-24T08:47:21.214Z,17.10
2019-01-24T08:48:21.221Z,17.10
2019-01-24T08:49:21.230Z,16.00
2019-01-24T08:50:21.239Z,15.60
2019-01-24T08:51:21.245Z,16.80
2019-01-24T08:52:21.255Z,16.20
2019-01-24T08:53:21.262Z,15.70
2019-01-24T08:54:21.271Z,15.00
2019-01-24T08:55:21.280Z,17.00
2019-01-24T08:56:21.287Z,15.80
2019-01-24T08:57:21.294Z,16.30
2019-01-24T08:58:21.307Z,16.00
2019-01-24T08:59:21.311Z,15.70
2019-01-24T09:00:21.322Z,15.00
2019-01-24T09:01:21.328Z,16.00
2019-01-24T09:02:21.345Z,15.60
2019-01-24T09:03:21.348Z,16.50
2019-01-24T09:04:21.353Z,16.30
2019-01-24T09:05:21.359Z,17.00
2019-01-24T09:06:22.625Z,15.90
2019-01-24T09:07:21.377Z,16.40
2019-01-24T09:08:21.384Z,16.20
2019-01-24T09:09:21.393Z,15.10
2019-01-24T09:10:21.400Z,15.30
2019-01-24T09:11:21.410Z,15.40
2019-01-24T09:12:21.422Z,16.10
2019-01-24T09:13:21.425Z,15.90
2019-01-24T09:14:21.432Z,15.40
2019-01-24T09:15:21.443Z,15.40
2019-01-24T09:16:21.451Z,15.10
2019-01-24T09:17:21.456Z,15.50
2019-01-24T09:18:21.469Z,16.30
2019-01-24T09:19:21.474Z,16.00
2019-01-24T09:20:21.482Z,14.90
2019-01-24T09:21:21.492Z,14.20
2019-01-24T09:22:21.500Z,13.90
2019-01-24T09:23:21.510Z,15.50
2019-01-24T09:24:21.517Z,15.80
2019-01-24T09:25:21.522Z,15.90
2019-01-24T09:26:21.530Z,16.40
2019-01-24T09:27:21.542Z,16.00
2019-01-24T09:28:21.550Z,16.20
2019-01-24T09:29:21.560Z,16.00
2019-01-24T09:30:21.567Z,15.00
2019-01-24T09:31:21.575Z,15.50
2019-01-24T09:32:21.583Z,16.10
2019-01-24T09:33:21.591Z,16.20
2019-01-24T09:34:21.600Z,16.00
2019-01-24T09:35:21.608Z,15.80
2019-01-24T09:36:21.617Z,15.90
2019-01-24T09:37:21.626Z,16.30
2019-01-24T09:38:21.634Z,14.70
2019-01-24T09:39:21.644Z,14.90
2019-01-24T09:40:21.651Z,14.90
2019-01-24T09:41:21.660Z,15.40
2019-01-24T09:42:21.669Z,16.00
2019-01-24T09:43:21.684Z,14.90
2019-01-24T09:44:21.686Z,15.60
2019-01-24T09:45:21.696Z,15.70
2019-01-24T09:46:21.702Z,16.10
2019-01-24T09:47:21.710Z,16.00
2019-01-24T09:48:21.721Z,20.10
2019-01-24T09:49:21.730Z,17.40
2019-01-24T09:50:21.736Z,21.40
2019-01-24T09:51:21.747Z,18.50
2019-01-24T09:52:21.753Z,16.70
2019-01-24T09:53:21.763Z,16.90
2019-01-24T09:54:21.773Z,16.00
2019-01-24T09:55:21.782Z,14.60
2019-01-24T09:56:21.793Z,15.40
2019-01-24T09:57:21.802Z,15.00
2019-01-24T09:58:21.808Z,15.30
2019-01-24T09:59:21.815Z,15.60
2019-01-24T10:00:21.826Z,15.40
2019-01-24T10:01:21.832Z,14.70
2019-01-24T10:02:21.841Z,15.50
2019-01-24T10:03:21.852Z,14.80
2019-01-24T10:04:21.859Z,15.10
2019-01-24T10:05:21.867Z,15.10
2019-01-24T10:06:21.876Z,15.40
2019-01-24T10:07:21.899Z,14.30
2019-01-24T10:08:21.894Z,14.60
2019-01-24T10:09:21.902Z,16.00
2019-01-24T10:10:21.912Z,15.00
2019-01-24T10:11:23.557Z,14.90
2019-01-24T10:12:21.931Z,15.50
2019-01-24T10:13:21.934Z,16.00
2019-01-24T10:14:21.947Z,15.20
2019-01-24T10:15:21.957Z,14.80
2019-01-24T10:16:21.965Z,14.90
2019-01-24T10:17:21.975Z,14.20
2019-01-24T10:18:21.981Z,14.50
2019-01-24T10:19:21.991Z,14.30
2019-01-24T10:20:21.999Z,14.30
2019-01-24T10:21:22.007Z,15.00
2019-01-24T10:22:22.019Z,14.80
2019-01-24T10:23:22.025Z,14.50
2019-01-24T10:24:22.037Z,14.20
2019-01-24T10:25:22.041Z,15.20
2019-01-24T10:26:22.051Z,14.40
2019-01-24T10:27:22.061Z,14.70
2019-01-24T10:28:22.070Z,14.60
2019-01-24T10:29:22.080Z,14.80
2019-01-24T10:30:22.085Z,14.40
2019-01-24T10:31:22.097Z,14.20
2019-01-24T10:32:22.106Z,14.30
2019-01-24T10:33:22.114Z,15.30
2019-01-24T10:34:22.122Z,15.30
2019-01-24T10:35:22.132Z,14.90
2019-01-24T10:36:22.139Z,14.30
2019-01-24T10:37:22.150Z,15.20
2019-01-24T10:38:22.157Z,15.90
2019-01-24T10:39:22.166Z,14.70
2019-01-24T10:40:22.183Z,15.90
2019-01-24T10:41:22.185Z,16.10
2019-01-24T10:42:22.194Z,15.30
2019-01-24T10:43:22.201Z,16.30
2019-01-24T10:44:22.209Z,16.50
2019-01-24T10:45:22.218Z,14.40
2019-01-24T10:46:22.231Z,16.10
2019-01-24T10:47:22.238Z,15.60
2019-01-24T10:48:22.247Z,16.10
2019-01-24T10:49:22.254Z,16.50
2019-01-24T10:50:22.267Z,16.80
2019-01-24T10:51:22.274Z,15.70
2019-01-24T10:52:22.283Z,15.70
2019-01-24T10:53:22.293Z,16.30
2019-01-24T10:54:22.302Z,17.50
2019-01-24T10:55:22.312Z,16.50
2019-01-24T10:56:22.320Z,15.30
2019-01-24T10:57:22.328Z,15.40
2019-01-24T10:58:22.337Z,15.10
2019-01-24T10:59:22.446Z,17.10
2019-01-24T11:00:22.358Z,15.60
2019-01-24T11:01:22.362Z,16.30
2019-01-24T11:02:22.372Z,15.80
2019-01-24T11:03:22.385Z,16.20
2019-01-24T11:04:22.395Z,16.90
2019-01-24T11:05:22.398Z,16.90
2019-01-24T11:06:22.408Z,16.60
2019-01-24T11:07:22.416Z,15.50
2019-01-24T11:08:22.429Z,15.40
2019-01-24T11:09:22.434Z,15.60
2019-01-24T11:10:22.445Z,16.10
2019-01-24T11:11:22.450Z,14.90
2019-01-24T11:12:22.464Z,15.10
2019-01-24T11:13:22.471Z,15.60
2019-01-24T11:14:22.481Z,16.00
2019-01-24T11:15:22.489Z,15.20
2019-01-24T11:16:22.512Z,16.40
2019-01-24T11:17:22.506Z,16.40
2019-01-24T11:18:22.517Z,16.10
2019-01-24T11:19:22.527Z,15.50
2019-01-24T11:20:22.533Z,16.20
2019-01-24T11:21:22.543Z,15.70
2019-01-24T11:22:22.554Z,15.70
2019-01-24T11:23:22.560Z,15.20
2019-01-24T11:24:22.569Z,16.40
2019-01-24T11:25:22.582Z,15.50
2019-01-24T11:26:22.591Z,15.50
2019-01-24T11:27:22.597Z,16.00
2019-01-24T11:28:22.605Z,15.90
2019-01-24T11:29:22.625Z,15.10
2019-01-24T11:30:22.641Z,15.50
2019-01-24T11:31:22.714Z,17.10
2019-01-24T11:32:22.713Z,16.40
2019-01-24T11:33:22.699Z,16.10
2019-01-24T11:34:22.766Z,16.60
2019-01-24T11:35:22.706Z,17.30
2019-01-24T11:36:22.709Z,18.30
2019-01-24T11:37:22.776Z,17.50
2019-01-24T11:38:22.765Z,17.00
2019-01-24T11:39:22.764Z,17.20
2019-01-24T11:40:22.761Z,18.10
2019-01-24T11:41:22.779Z,17.40
2019-01-24T11:42:22.769Z,17.50
2019-01-24T11:43:22.758Z,19.00
2019-01-24T11:44:22.762Z,17.80
2019-01-24T11:45:22.774Z,17.50
2019-01-24T11:46:22.766Z,17.60
2019-01-24T11:47:22.774Z,17.80
2019-01-24T11:48:22.785Z,19.00
2019-01-24T11:49:22.791Z,17.90
2019-01-24T11:50:22.801Z,17.90
2019-01-24T11:51:22.811Z,18.80
2019-01-24T11:52:22.819Z,17.80
2019-01-24T11:53:22.825Z,17.80
2019-01-24T11:54:22.840Z,20.30
2019-01-24T11:55:22.845Z,18.20
2019-01-24T11:56:22.852Z,19.20
2019-01-24T11:57:22.860Z,17.50
2019-01-24T11:58:22.871Z,20.00
2019-01-24T11:59:22.879Z,18.60
2019-01-24T12:00:22.889Z,18.90
2019-01-24T12:01:22.897Z,19.10
2019-01-24T12:02:22.905Z,17.50
2019-01-24T12:03:22.914Z,19.60
2019-01-24T12:04:22.923Z,19.40
2019-01-24T12:05:22.931Z,19.30
2019-01-24T12:06:23.391Z,18.80
2019-01-24T12:07:22.946Z,20.00
2019-01-24T12:08:23.009Z,18.60
2019-01-24T12:09:22.965Z,19.90
2019-01-24T12:10:22.977Z,18.60
2019-01-24T12:11:22.980Z,20.20
2019-01-24T12:12:22.990Z,19.60
2019-01-24T12:13:22.999Z,20.00
2019-01-24T12:14:23.007Z,19.80
2019-01-24T12:15:23.016Z,20.10
2019-01-24T12:16:23.025Z,20.10
2019-01-24T12:17:23.032Z,19.90
2019-01-24T12:18:23.040Z,21.50
2019-01-24T12:19:23.051Z,19.90
2019-01-24T12:20:23.054Z,20.80
2019-01-24T12:21:23.065Z,21.20
2019-01-24T12:22:23.074Z,20.10
2019-01-24T12:23:23.083Z,20.10
2019-01-24T12:24:23.091Z,20.50
2019-01-24T12:25:23.100Z,22.80
2019-01-24T12:26:23.109Z,22.20
2019-01-24T12:27:23.119Z,21.60
2019-01-24T12:28:23.124Z,21.90
2019-01-24T12:29:23.133Z,22.50
2019-01-24T12:30:23.143Z,22.50
2019-01-24T12:31:23.149Z,23.30
2019-01-24T12:32:23.156Z,23.60
2019-01-24T12:33:23.166Z,23.70
2019-01-24T12:34:23.173Z,22.60
2019-01-24T12:35:23.186Z,23.40
2019-01-24T12:36:23.191Z,24.00
2019-01-24T12:37:23.197Z,22.90
2019-01-24T12:38:23.209Z,24.30
2019-01-24T12:39:23.215Z,23.50
2019-01-24T12:40:23.226Z,24.30
2019-01-24T12:41:23.231Z,24.10
2019-01-24T12:42:23.239Z,23.70
2019-01-24T12:43:23.250Z,25.10
2019-01-24T12:44:23.258Z,25.90
2019-01-24T12:45:23.263Z,27.10
2019-01-24T12:46:23.273Z,25.80
2019-01-24T12:47:23.282Z,25.90
2019-01-24T12:48:23.292Z,27.10
2019-01-24T12:49:23.297Z,27.00
2019-01-24T12:50:23.306Z,24.80
2019-01-24T12:51:23.317Z,26.60
2019-01-24T12:52:23.321Z,28.20
2019-01-24T12:53:23.332Z,32.20
2019-01-24T12:54:23.336Z,25.60
2019-01-24T12:55:23.343Z,26.50
2019-01-24T12:56:23.356Z,26.00
2019-01-24T12:57:23.361Z,25.50
2019-01-24T12:58:23.410Z,25.80
2019-01-24T12:59:23.378Z,25.50
2019-01-24T13:00:23.384Z,27.00
2019-01-24T13:01:23.396Z,27.00
2019-01-24T13:02:23.399Z,26.80
2019-01-24T13:03:23.410Z,27.40
2019-01-24T13:04:23.418Z,27.40
2019-01-24T13:05:23.424Z,26.00
2019-01-24T13:06:23.434Z,27.10
2019-01-24T13:07:23.442Z,26.50
2019-01-24T13:08:23.450Z,26.60
2019-01-24T13:09:23.460Z,26.10
2019-01-24T13:10:23.500Z,25.30
2019-01-24T13:11:23.476Z,26.90
2019-01-24T13:12:23.481Z,26.60
2019-01-24T13:13:23.490Z,27.00
2019-01-24T13:14:23.496Z,25.20
2019-01-24T13:15:23.505Z,24.40
2019-01-24T13:16:23.513Z,26.30
2019-01-24T13:17:23.520Z,28.70
2019-01-24T13:18:23.529Z,26.50
2019-01-24T13:19:23.538Z,26.00
2019-01-24T13:20:23.546Z,26.00
2019-01-24T13:21:23.551Z,27.20
2019-01-24T13:22:23.561Z,27.40
2019-01-24T13:23:23.569Z,27.60
2019-01-24T13:24:23.577Z,24.60
2019-01-24T13:25:23.593Z,24.50
2019-01-24T13:26:23.592Z,24.20
2019-01-24T13:27:23.602Z,24.40
2019-01-24T13:28:23.610Z,23.20
2019-01-24T13:29:23.614Z,23.90
2019-01-24T13:30:23.624Z,25.30
2019-01-24T13:31:23.631Z,25.30
2019-01-24T13:32:23.638Z,24.50
2019-01-24T13:33:23.645Z,24.60
2019-01-24T13:34:23.652Z,25.90
2019-01-24T13:35:23.662Z,24.30
2019-01-24T13:36:23.668Z,24.50
2019-01-24T13:37:25.833Z,23.90
2019-01-24T13:38:23.684Z,24.80
2019-01-24T13:39:23.694Z,23.70
2019-01-24T13:40:23.701Z,24.20
2019-01-24T13:41:23.704Z,23.60
2019-01-24T13:42:23.711Z,24.80
2019-01-24T13:43:23.720Z,24.50
2019-01-24T13:44:23.730Z,23.50
2019-01-24T13:45:23.735Z,23.30
2019-01-24T13:46:23.744Z,23.50
2019-01-24T13:47:23.752Z,23.70
2019-01-24T13:48:23.760Z,22.70
2019-01-24T13:49:23.770Z,23.60
2019-01-24T13:50:23.775Z,23.10
2019-01-24T13:51:23.782Z,22.80
2019-01-24T13:52:23.791Z,23.80
2019-01-24T13:53:23.796Z,23.10